Celebrity Galaxy — 9HJH9 — position and weather

sailwx.info

Track history (hours):
 
Tides and Currents Weather Stations Pressure Air Temp Water Temp Dewpoint Dewpoint Depression Visibility Wind Speed Wind Dir Waves Ship Positions

Celebrity Galaxy

Last reported at 2019-Mar-22 06:12 UTC. Time now 2019-Mar-22 12:16 UTC.
Position N 17°36' W 062°55'.

Length 38 m; draft 2.5 m.

Type: Pleasure craft. MMSI: 249051000.

Date/timePositionNaut miles runAvg speedWind from/ knotsBaromVisibWave heightAir tempDewpointWater temp
2019-Mar-22 06:12N 17°36' W 062°55'313.1
2019-Mar-22 05:58N 17°37' W 062°58'713.4
2019-Mar-22 05:27N 17°40' W 063°05'613.8
2019-Mar-22 05:00N 17°43' W 063°11'713.8
2019-Mar-22 04:30N 17°46' W 063°17'813.6
2019-Mar-22 03:56N 17°49' W 063°25'613.6
2019-Mar-22 03:28N 17°52' W 063°31'814.0
2019-Mar-22 02:56N 17°55' W 063°38'5213.8
2019-Mar-21 23:08N 18°17' W 064°28'413.8
2019-Mar-21 22:49N 18°19' W 064°32'412.6
2019-Mar-21 22:30N 18°23' W 064°33'3 0.3
2019-Mar-21 11:16N 18°25' W 064°36'3 9.7
2019-Mar-21 11:00N 18°24' W 064°33'510.1
2019-Mar-21 10:30N 18°19' W 064°32'5710.2
2019-Mar-21 04:54N 18°06' W 063°33'410.2
2019-Mar-21 04:30N 18°05' W 063°29'510.2
2019-Mar-21 04:00N 18°04' W 063°24'610.4
2019-Mar-21 03:23N 18°02' W 063°17'33 1.6
2019-Mar-20 06:30N 17°31' W 063°05'6 9.2
2019-Mar-20 05:52N 17°25' W 063°06'25 4.5
2019-Mar-20 00:18N 17°04' W 062°52'13 9.0
2019-Mar-19 22:52N 17°15' W 062°45'4 0.3
2019-Mar-19 10:35N 17°11' W 062°43'27 8.1
2019-Mar-19 07:15N 16°45' W 062°34'150 8.9
2019-Mar-18 14:17N 14°37' W 061°12'3 8.8
2019-Mar-18 13:56N 14°34' W 061°11'4 9.1
2019-Mar-18 13:29N 14°31' W 061°09'4 8.4
2019-Mar-18 12:58N 14°27' W 061°08'5 8.5
2019-Mar-18 12:21N 14°22' W 061°05'5 9.7
2019-Mar-18 11:48N 14°19' W 061°01'4 9.4
2019-Mar-18 11:22N 14°16' W 060°58'4 9.3
2019-Mar-18 10:54N 14°13' W 060°54'5 9.3
2019-Mar-18 10:19N 14°09' W 060°50'  
Track history (hours):
 
Tides and Currents Weather Stations Pressure Air Temp Water Temp Dewpoint Dewpoint Depression Visibility Wind Speed Wind Dir Waves Ship Positions

Celebrity Galaxy

Last reported at 2019-Mar-22 06:12 UTC. Time now 2019-Mar-22 12:16 UTC.
Position N 17°36' W 062°55'.

Length 38 m; draft 2.5 m.

Type: Pleasure craft. MMSI: 249051000.

Date/timePositionNaut miles runAvg speedWind from/ knotsBaromVisibWave heightAir tempDewpointWater temp
2019-Mar-22 06:12N 17°36' W 062°55'313.1
2019-Mar-22 05:58N 17°37' W 062°58'713.4
2019-Mar-22 05:27N 17°40' W 063°05'613.8
2019-Mar-22 05:00N 17°43' W 063°11'713.8
2019-Mar-22 04:30N 17°46' W 063°17'813.6
2019-Mar-22 03:56N 17°49' W 063°25'613.6
2019-Mar-22 03:28N 17°52' W 063°31'814.0
2019-Mar-22 02:56N 17°55' W 063°38'5213.8
2019-Mar-21 23:08N 18°17' W 064°28'413.8
2019-Mar-21 22:49N 18°19' W 064°32'412.6
2019-Mar-21 22:30N 18°23' W 064°33'3 0.3
2019-Mar-21 11:16N 18°25' W 064°36'3 9.7
2019-Mar-21 11:00N 18°24' W 064°33'510.1
2019-Mar-21 10:30N 18°19' W 064°32'5710.2
2019-Mar-21 04:54N 18°06' W 063°33'410.2
2019-Mar-21 04:30N 18°05' W 063°29'510.2
2019-Mar-21 04:00N 18°04' W 063°24'610.4
2019-Mar-21 03:23N 18°02' W 063°17'33 1.6
2019-Mar-20 06:30N 17°31' W 063°05'6 9.2
2019-Mar-20 05:52N 17°25' W 063°06'25 4.5
2019-Mar-20 00:18N 17°04' W 062°52'13 9.0
2019-Mar-19 22:52N 17°15' W 062°45'4 0.3
2019-Mar-19 10:35N 17°11' W 062°43'27 8.1
2019-Mar-19 07:15N 16°45' W 062°34'150 8.9
2019-Mar-18 14:17N 14°37' W 061°12'3 8.8
2019-Mar-18 13:56N 14°34' W 061°11'4 9.1
2019-Mar-18 13:29N 14°31' W 061°09'4 8.4
2019-Mar-18 12:58N 14°27' W 061°08'5 8.5
2019-Mar-18 12:21N 14°22' W 061°05'5 9.7
2019-Mar-18 11:48N 14°19' W 061°01'4 9.4
2019-Mar-18 11:22N 14°16' W 060°58'4 9.3
2019-Mar-18 10:54N 14°13' W 060°54'5 9.3
2019-Mar-18 10:19N 14°09' W 060°50'  

Dump ship's entire track history